sensor_id;sensor_type;location;lat;lon;timestamp;P1;durP1;ratioP1;P2;durP2;ratioP2
34242;SDS011;20504;43.214;27.920;2024-02-21T00:00:34;39.72;;;22.20;;
34242;SDS011;20504;43.214;27.920;2024-02-21T00:03:03;35.38;;;21.27;;
34242;SDS011;20504;43.214;27.920;2024-02-21T00:05:33;34.50;;;21.45;;
34242;SDS011;20504;43.214;27.920;2024-02-21T00:08:01;35.20;;;21.42;;
34242;SDS011;20504;43.214;27.920;2024-02-21T00:10:29;35.53;;;21.15;;
34242;SDS011;20504;43.214;27.920;2024-02-21T00:13:16;32.97;;;19.88;;
34242;SDS011;20504;43.214;27.920;2024-02-21T00:15:43;37.85;;;20.92;;
34242;SDS011;20504;43.214;27.920;2024-02-21T00:18:11;32.05;;;20.45;;
34242;SDS011;20504;43.214;27.920;2024-02-21T00:20:37;30.40;;;18.83;;
34242;SDS011;20504;43.214;27.920;2024-02-21T00:23:04;33.70;;;19.70;;
34242;SDS011;20504;43.214;27.920;2024-02-21T00:25:32;33.53;;;19.50;;
34242;SDS011;20504;43.214;27.920;2024-02-21T00:27:57;33.90;;;20.83;;
34242;SDS011;20504;43.214;27.920;2024-02-21T00:30:27;36.38;;;19.35;;
34242;SDS011;20504;43.214;27.920;2024-02-21T00:32:54;33.78;;;19.35;;
34242;SDS011;20504;43.214;27.920;2024-02-21T00:35:22;32.58;;;20.52;;
34242;SDS011;20504;43.214;27.920;2024-02-21T00:37:54;29.30;;;19.17;;
34242;SDS011;20504;43.214;27.920;2024-02-21T00:40:22;32.30;;;18.23;;
34242;SDS011;20504;43.214;27.920;2024-02-21T00:42:50;28.02;;;18.17;;
34242;SDS011;20504;43.214;27.920;2024-02-21T00:45:20;30.35;;;17.65;;
34242;SDS011;20504;43.214;27.920;2024-02-21T00:47:48;30.90;;;18.15;;
34242;SDS011;20504;43.214;27.920;2024-02-21T00:50:16;33.33;;;18.10;;
34242;SDS011;20504;43.214;27.920;2024-02-21T00:52:43;32.58;;;19.25;;
34242;SDS011;20504;43.214;27.920;2024-02-21T00:55:11;36.92;;;20.38;;
34242;SDS011;20504;43.214;27.920;2024-02-21T00:57:40;40.72;;;21.13;;
34242;SDS011;20504;43.214;27.920;2024-02-21T01:00:08;44.50;;;25.25;;
34242;SDS011;20504;43.214;27.920;2024-02-21T01:02:36;45.65;;;28.25;;
34242;SDS011;20504;43.214;27.920;2024-02-21T01:05:03;51.50;;;32.03;;
34242;SDS011;20504;43.214;27.920;2024-02-21T01:07:31;54.88;;;28.77;;
34242;SDS011;20504;43.214;27.920;2024-02-21T01:09:57;49.78;;;27.40;;
34242;SDS011;20504;43.214;27.920;2024-02-21T01:14:50;45.00;;;27.33;;
34242;SDS011;20504;43.214;27.920;2024-02-21T01:17:17;47.45;;;27.58;;
34242;SDS011;20504;43.214;27.920;2024-02-21T01:19:46;48.53;;;28.85;;
34242;SDS011;20504;43.214;27.920;2024-02-21T01:22:12;45.97;;;27.17;;
34242;SDS011;20504;43.214;27.920;2024-02-21T01:24:41;46.30;;;28.65;;
34242;SDS011;20504;43.214;27.920;2024-02-21T01:27:06;48.87;;;28.63;;
34242;SDS011;20504;43.214;27.920;2024-02-21T01:32:00;48.03;;;27.67;;
34242;SDS011;20504;43.214;27.920;2024-02-21T01:34:35;41.45;;;25.27;;
34242;SDS011;20504;43.214;27.920;2024-02-21T01:37:05;43.15;;;27.08;;
34242;SDS011;20504;43.214;27.920;2024-02-21T01:39:34;49.38;;;28.63;;
34242;SDS011;20504;43.214;27.920;2024-02-21T01:44:27;46.28;;;27.60;;
34242;SDS011;20504;43.214;27.920;2024-02-21T01:46:53;44.08;;;27.50;;
34242;SDS011;20504;43.214;27.920;2024-02-21T01:49:23;44.10;;;27.13;;
34242;SDS011;20504;43.214;27.920;2024-02-21T01:51:50;43.25;;;28.40;;
34242;SDS011;20504;43.214;27.920;2024-02-21T01:54:17;44.67;;;27.33;;
34242;SDS011;20504;43.214;27.920;2024-02-21T01:56:44;46.00;;;27.75;;
34242;SDS011;20504;43.214;27.920;2024-02-21T01:59:12;51.08;;;28.50;;
34242;SDS011;20504;43.214;27.920;2024-02-21T02:01:42;47.78;;;27.35;;
34242;SDS011;20504;43.214;27.920;2024-02-21T02:04:09;48.20;;;26.70;;
34242;SDS011;20504;43.214;27.920;2024-02-21T02:06:37;43.63;;;25.73;;
34242;SDS011;20504;43.214;27.920;2024-02-21T02:09:06;41.85;;;25.33;;
34242;SDS011;20504;43.214;27.920;2024-02-21T02:11:36;39.38;;;24.85;;
34242;SDS011;20504;43.214;27.920;2024-02-21T02:14:04;49.95;;;26.27;;
34242;SDS011;20504;43.214;27.920;2024-02-21T02:16:34;48.20;;;27.40;;
34242;SDS011;20504;43.214;27.920;2024-02-21T02:19:04;41.60;;;27.17;;
34242;SDS011;20504;43.214;27.920;2024-02-21T02:21:39;40.63;;;25.77;;
34242;SDS011;20504;43.214;27.920;2024-02-21T02:24:11;41.90;;;25.45;;
34242;SDS011;20504;43.214;27.920;2024-02-21T02:26:40;46.95;;;25.27;;
34242;SDS011;20504;43.214;27.920;2024-02-21T02:29:13;37.90;;;24.88;;
34242;SDS011;20504;43.214;27.920;2024-02-21T02:31:39;34.83;;;21.83;;
34242;SDS011;20504;43.214;27.920;2024-02-21T02:34:17;36.33;;;21.23;;
34242;SDS011;20504;43.214;27.920;2024-02-21T02:36:45;33.63;;;21.98;;
34242;SDS011;20504;43.214;27.920;2024-02-21T02:39:14;41.05;;;23.42;;
34242;SDS011;20504;43.214;27.920;2024-02-21T02:41:45;41.83;;;23.63;;
34242;SDS011;20504;43.214;27.920;2024-02-21T02:44:16;39.20;;;22.23;;
34242;SDS011;20504;43.214;27.920;2024-02-21T02:46:48;40.58;;;23.17;;
34242;SDS011;20504;43.214;27.920;2024-02-21T02:49:18;43.75;;;24.35;;
34242;SDS011;20504;43.214;27.920;2024-02-21T02:51:45;52.80;;;27.55;;
34242;SDS011;20504;43.214;27.920;2024-02-21T02:54:16;53.90;;;30.23;;
34242;SDS011;20504;43.214;27.920;2024-02-21T02:56:50;52.15;;;30.63;;
34242;SDS011;20504;43.214;27.920;2024-02-21T02:59:18;54.78;;;30.70;;
34242;SDS011;20504;43.214;27.920;2024-02-21T03:01:46;48.85;;;29.95;;
34242;SDS011;20504;43.214;27.920;2024-02-21T03:04:15;57.22;;;30.27;;
34242;SDS011;20504;43.214;27.920;2024-02-21T03:06:44;58.28;;;29.65;;
34242;SDS011;20504;43.214;27.920;2024-02-21T03:09:11;54.83;;;28.73;;
34242;SDS011;20504;43.214;27.920;2024-02-21T03:11:40;50.33;;;28.75;;
34242;SDS011;20504;43.214;27.920;2024-02-21T03:14:09;46.72;;;27.13;;
34242;SDS011;20504;43.214;27.920;2024-02-21T03:16:36;49.58;;;28.85;;
34242;SDS011;20504;43.214;27.920;2024-02-21T03:19:03;44.70;;;26.75;;
34242;SDS011;20504;43.214;27.920;2024-02-21T03:21:31;50.72;;;25.95;;
34242;SDS011;20504;43.214;27.920;2024-02-21T03:23:58;50.35;;;26.65;;
34242;SDS011;20504;43.214;27.920;2024-02-21T03:26:25;49.55;;;26.45;;
34242;SDS011;20504;43.214;27.920;2024-02-21T03:28:51;54.72;;;27.00;;
34242;SDS011;20504;43.214;27.920;2024-02-21T03:31:17;42.73;;;21.57;;
34242;SDS011;20504;43.214;27.920;2024-02-21T03:33:44;63.85;;;28.40;;
34242;SDS011;20504;43.214;27.920;2024-02-21T03:36:15;61.30;;;28.88;;
34242;SDS011;20504;43.214;27.920;2024-02-21T03:38:41;59.63;;;27.58;;
34242;SDS011;20504;43.214;27.920;2024-02-21T03:43:33;57.72;;;28.23;;
34242;SDS011;20504;43.214;27.920;2024-02-21T03:46:01;73.95;;;29.67;;
34242;SDS011;20504;43.214;27.920;2024-02-21T03:48:28;57.08;;;29.55;;
34242;SDS011;20504;43.214;27.920;2024-02-21T03:50:55;59.97;;;29.15;;
34242;SDS011;20504;43.214;27.920;2024-02-21T03:53:22;55.10;;;29.35;;
34242;SDS011;20504;43.214;27.920;2024-02-21T03:58:15;57.03;;;29.70;;
34242;SDS011;20504;43.214;27.920;2024-02-21T04:00:41;58.97;;;30.57;;
34242;SDS011;20504;43.214;27.920;2024-02-21T04:03:07;57.95;;;27.65;;
34242;SDS011;20504;43.214;27.920;2024-02-21T04:05:34;58.03;;;30.45;;
34242;SDS011;20504;43.214;27.920;2024-02-21T04:08:04;58.90;;;31.25;;
34242;SDS011;20504;43.214;27.920;2024-02-21T04:10:30;58.92;;;31.02;;
34242;SDS011;20504;43.214;27.920;2024-02-21T04:12:56;61.55;;;31.05;;
34242;SDS011;20504;43.214;27.920;2024-02-21T04:15:23;67.18;;;31.35;;
34242;SDS011;20504;43.214;27.920;2024-02-21T04:17:51;65.63;;;32.00;;
34242;SDS011;20504;43.214;27.920;2024-02-21T04:20:20;64.55;;;31.75;;
34242;SDS011;20504;43.214;27.920;2024-02-21T04:22:48;61.67;;;31.38;;
34242;SDS011;20504;43.214;27.920;2024-02-21T04:25:15;60.05;;;32.10;;
34242;SDS011;20504;43.214;27.920;2024-02-21T04:27:44;59.83;;;31.90;;
34242;SDS011;20504;43.214;27.920;2024-02-21T04:30:11;58.67;;;31.38;;
34242;SDS011;20504;43.214;27.920;2024-02-21T04:32:38;62.75;;;33.40;;
34242;SDS011;20504;43.214;27.920;2024-02-21T04:35:06;56.38;;;30.95;;
34242;SDS011;20504;43.214;27.920;2024-02-21T04:37:34;64.07;;;32.80;;
34242;SDS011;20504;43.214;27.920;2024-02-21T04:40:03;61.38;;;30.77;;
34242;SDS011;20504;43.214;27.920;2024-02-21T04:42:29;66.65;;;33.08;;
34242;SDS011;20504;43.214;27.920;2024-02-21T04:44:56;58.22;;;32.75;;
34242;SDS011;20504;43.214;27.920;2024-02-21T04:47:26;61.53;;;33.33;;
34242;SDS011;20504;43.214;27.920;2024-02-21T04:49:53;55.53;;;32.00;;
34242;SDS011;20504;43.214;27.920;2024-02-21T04:52:19;54.13;;;31.53;;
34242;SDS011;20504;43.214;27.920;2024-02-21T04:54:46;53.72;;;33.10;;
34242;SDS011;20504;43.214;27.920;2024-02-21T04:57:11;58.37;;;33.27;;
34242;SDS011;20504;43.214;27.920;2024-02-21T04:59:43;57.25;;;31.13;;
34242;SDS011;20504;43.214;27.920;2024-02-21T05:02:14;57.70;;;31.17;;
34242;SDS011;20504;43.214;27.920;2024-02-21T05:04:39;59.20;;;33.80;;
34242;SDS011;20504;43.214;27.920;2024-02-21T05:07:06;53.70;;;32.60;;
34242;SDS011;20504;43.214;27.920;2024-02-21T05:09:32;60.38;;;34.45;;
34242;SDS011;20504;43.214;27.920;2024-02-21T05:12:08;62.95;;;34.28;;
34242;SDS011;20504;43.214;27.920;2024-02-21T05:14:33;65.67;;;38.30;;
34242;SDS011;20504;43.214;27.920;2024-02-21T05:16:59;68.28;;;38.50;;
34242;SDS011;20504;43.214;27.920;2024-02-21T05:19:25;73.23;;;40.20;;
34242;SDS011;20504;43.214;27.920;2024-02-21T05:21:50;65.57;;;38.30;;
34242;SDS011;20504;43.214;27.920;2024-02-21T05:24:16;70.73;;;36.90;;
34242;SDS011;20504;43.214;27.920;2024-02-21T05:26:41;63.00;;;37.27;;
34242;SDS011;20504;43.214;27.920;2024-02-21T05:29:07;68.30;;;38.20;;
34242;SDS011;20504;43.214;27.920;2024-02-21T05:31:54;72.78;;;39.20;;
34242;SDS011;20504;43.214;27.920;2024-02-21T05:34:22;79.18;;;43.88;;
34242;SDS011;20504;43.214;27.920;2024-02-21T05:36:47;84.00;;;45.93;;
34242;SDS011;20504;43.214;27.920;2024-02-21T05:39:14;83.70;;;45.50;;
34242;SDS011;20504;43.214;27.920;2024-02-21T05:41:41;77.78;;;43.80;;
34242;SDS011;20504;43.214;27.920;2024-02-21T05:44:08;77.67;;;44.70;;
34242;SDS011;20504;43.214;27.920;2024-02-21T05:46:34;72.93;;;43.80;;
34242;SDS011;20504;43.214;27.920;2024-02-21T05:49:00;77.20;;;43.70;;
34242;SDS011;20504;43.214;27.920;2024-02-21T05:51:26;80.70;;;45.40;;
34242;SDS011;20504;43.214;27.920;2024-02-21T05:56:23;78.25;;;41.78;;
34242;SDS011;20504;43.214;27.920;2024-02-21T05:58:48;54.83;;;30.57;;
34242;SDS011;20504;43.214;27.920;2024-02-21T06:01:14;73.47;;;42.40;;
34242;SDS011;20504;43.214;27.920;2024-02-21T06:03:40;69.73;;;40.20;;
34242;SDS011;20504;43.214;27.920;2024-02-21T06:06:05;71.00;;;40.00;;
34242;SDS011;20504;43.214;27.920;2024-02-21T06:08:31;75.53;;;41.40;;
34242;SDS011;20504;43.214;27.920;2024-02-21T06:11:26;76.03;;;43.60;;
34242;SDS011;20504;43.214;27.920;2024-02-21T06:14:35;79.05;;;40.75;;
34242;SDS011;20504;43.214;27.920;2024-02-21T06:18:02;76.90;;;42.35;;
34242;SDS011;20504;43.214;27.920;2024-02-21T06:21:34;82.50;;;46.75;;
34242;SDS011;20504;43.214;27.920;2024-02-21T06:25:00;92.13;;;46.17;;
34242;SDS011;20504;43.214;27.920;2024-02-21T06:27:53;75.28;;;45.53;;
34242;SDS011;20504;43.214;27.920;2024-02-21T06:33:13;82.93;;;46.38;;
34242;SDS011;20504;43.214;27.920;2024-02-21T06:36:23;75.18;;;42.25;;
34242;SDS011;20504;43.214;27.920;2024-02-21T06:41:54;80.85;;;44.53;;
34242;SDS011;20504;43.214;27.920;2024-02-21T06:44:44;91.22;;;47.40;;
34242;SDS011;20504;43.214;27.920;2024-02-21T06:47:36;101.45;;;54.10;;
34242;SDS011;20504;43.214;27.920;2024-02-21T06:50:51;118.22;;;64.57;;
34242;SDS011;20504;43.214;27.920;2024-02-21T06:54:32;134.25;;;70.00;;
34242;SDS011;20504;43.214;27.920;2024-02-21T07:17:30;154.20;;;88.90;;
34242;SDS011;20504;43.214;27.920;2024-02-21T07:40:47;114.88;;;65.40;;
34242;SDS011;20504;43.214;27.920;2024-02-21T07:43:13;112.53;;;65.20;;
34242;SDS011;20504;43.214;27.920;2024-02-21T07:48:09;95.95;;;56.78;;
34242;SDS011;20504;43.214;27.920;2024-02-21T07:50:41;93.85;;;55.70;;
34242;SDS011;20504;43.214;27.920;2024-02-21T07:53:27;116.35;;;69.60;;
34242;SDS011;20504;43.214;27.920;2024-02-21T07:55:52;100.77;;;55.93;;
34242;SDS011;20504;43.214;27.920;2024-02-21T07:58:20;91.78;;;52.40;;
34242;SDS011;20504;43.214;27.920;2024-02-21T08:00:46;77.73;;;50.03;;
34242;SDS011;20504;43.214;27.920;2024-02-21T08:03:13;97.63;;;53.78;;
34242;SDS011;20504;43.214;27.920;2024-02-21T08:05:43;104.03;;;54.85;;
34242;SDS011;20504;43.214;27.920;2024-02-21T08:08:15;81.75;;;50.38;;
34242;SDS011;20504;43.214;27.920;2024-02-21T08:10:44;86.35;;;52.92;;
34242;SDS011;20504;43.214;27.920;2024-02-21T08:13:10;75.27;;;46.17;;
34242;SDS011;20504;43.214;27.920;2024-02-21T08:15:36;85.20;;;46.40;;
34242;SDS011;20504;43.214;27.920;2024-02-21T08:18:04;79.72;;;49.38;;
34242;SDS011;20504;43.214;27.920;2024-02-21T08:20:30;83.77;;;49.30;;
34242;SDS011;20504;43.214;27.920;2024-02-21T08:23:00;79.07;;;47.38;;
34242;SDS011;20504;43.214;27.920;2024-02-21T08:25:26;88.85;;;52.80;;
34242;SDS011;20504;43.214;27.920;2024-02-21T08:27:55;81.18;;;53.10;;
34242;SDS011;20504;43.214;27.920;2024-02-21T08:30:23;95.25;;;56.42;;
34242;SDS011;20504;43.214;27.920;2024-02-21T08:32:49;106.15;;;59.63;;
34242;SDS011;20504;43.214;27.920;2024-02-21T08:35:15;97.63;;;57.93;;
34242;SDS011;20504;43.214;27.920;2024-02-21T08:37:40;99.82;;;56.50;;
34242;SDS011;20504;43.214;27.920;2024-02-21T08:40:08;96.15;;;54.40;;
34242;SDS011;20504;43.214;27.920;2024-02-21T08:42:35;100.88;;;54.40;;
34242;SDS011;20504;43.214;27.920;2024-02-21T08:45:03;95.45;;;49.60;;
34242;SDS011;20504;43.214;27.920;2024-02-21T08:47:30;73.43;;;48.92;;
34242;SDS011;20504;43.214;27.920;2024-02-21T08:49:56;86.87;;;48.20;;
34242;SDS011;20504;43.214;27.920;2024-02-21T08:52:23;77.95;;;47.55;;
34242;SDS011;20504;43.214;27.920;2024-02-21T08:54:49;73.70;;;45.28;;
34242;SDS011;20504;43.214;27.920;2024-02-21T08:57:18;75.18;;;45.95;;
34242;SDS011;20504;43.214;27.920;2024-02-21T08:59:44;64.30;;;40.07;;
34242;SDS011;20504;43.214;27.920;2024-02-21T09:02:09;67.73;;;42.73;;
34242;SDS011;20504;43.214;27.920;2024-02-21T09:04:35;56.33;;;36.60;;
34242;SDS011;20504;43.214;27.920;2024-02-21T09:07:00;52.90;;;34.10;;
34242;SDS011;20504;43.214;27.920;2024-02-21T09:09:26;56.03;;;33.57;;
34242;SDS011;20504;43.214;27.920;2024-02-21T09:11:53;52.05;;;32.03;;
34242;SDS011;20504;43.214;27.920;2024-02-21T09:14:19;53.60;;;34.08;;
34242;SDS011;20504;43.214;27.920;2024-02-21T09:16:45;50.23;;;32.23;;
34242;SDS011;20504;43.214;27.920;2024-02-21T09:21:37;60.47;;;37.35;;
34242;SDS011;20504;43.214;27.920;2024-02-21T09:24:06;60.10;;;38.47;;
34242;SDS011;20504;43.214;27.920;2024-02-21T09:26:38;64.47;;;37.80;;
34242;SDS011;20504;43.214;27.920;2024-02-21T09:29:14;48.17;;;30.60;;
34242;SDS011;20504;43.214;27.920;2024-02-21T09:31:41;52.72;;;35.00;;
34242;SDS011;20504;43.214;27.920;2024-02-21T09:36:33;48.33;;;29.55;;
34242;SDS011;20504;43.214;27.920;2024-02-21T09:38:58;44.17;;;28.13;;
34242;SDS011;20504;43.214;27.920;2024-02-21T09:41:27;44.37;;;26.70;;
34242;SDS011;20504;43.214;27.920;2024-02-21T09:44:04;46.28;;;28.73;;
34242;SDS011;20504;43.214;27.920;2024-02-21T09:46:52;48.72;;;27.45;;
34242;SDS011;20504;43.214;27.920;2024-02-21T09:49:37;40.28;;;26.83;;
34242;SDS011;20504;43.214;27.920;2024-02-21T09:52:07;42.70;;;24.73;;
34242;SDS011;20504;43.214;27.920;2024-02-21T09:54:59;40.70;;;24.48;;
34242;SDS011;20504;43.214;27.920;2024-02-21T09:57:33;48.60;;;27.92;;
34242;SDS011;20504;43.214;27.920;2024-02-21T10:00:10;36.13;;;24.25;;
34242;SDS011;20504;43.214;27.920;2024-02-21T10:02:53;44.22;;;28.27;;
34242;SDS011;20504;43.214;27.920;2024-02-21T10:05:20;37.88;;;24.48;;
34242;SDS011;20504;43.214;27.920;2024-02-21T10:07:49;31.50;;;21.08;;
34242;SDS011;20504;43.214;27.920;2024-02-21T10:10:15;34.60;;;21.47;;
34242;SDS011;20504;43.214;27.920;2024-02-21T10:12:49;38.92;;;22.42;;
34242;SDS011;20504;43.214;27.920;2024-02-21T10:15:20;33.97;;;22.20;;
34242;SDS011;20504;43.214;27.920;2024-02-21T10:17:47;38.72;;;24.63;;
34242;SDS011;20504;43.214;27.920;2024-02-21T10:20:17;33.30;;;24.20;;
34242;SDS011;20504;43.214;27.920;2024-02-21T10:23:05;38.92;;;24.30;;
34242;SDS011;20504;43.214;27.920;2024-02-21T10:25:40;39.97;;;24.17;;
34242;SDS011;20504;43.214;27.920;2024-02-21T10:28:13;37.47;;;23.80;;
34242;SDS011;20504;43.214;27.920;2024-02-21T10:30:53;40.22;;;25.42;;
34242;SDS011;20504;43.214;27.920;2024-02-21T10:33:25;55.08;;;29.80;;
34242;SDS011;20504;43.214;27.920;2024-02-21T10:36:10;57.42;;;31.60;;
34242;SDS011;20504;43.214;27.920;2024-02-21T10:38:55;48.10;;;32.08;;
34242;SDS011;20504;43.214;27.920;2024-02-21T10:41:22;49.22;;;31.52;;
34242;SDS011;20504;43.214;27.920;2024-02-21T10:43:52;51.45;;;33.55;;
34242;SDS011;20504;43.214;27.920;2024-02-21T10:46:21;53.33;;;34.28;;
34242;SDS011;20504;43.214;27.920;2024-02-21T10:49:01;56.42;;;35.58;;
34242;SDS011;20504;43.214;27.920;2024-02-21T10:51:34;62.67;;;38.05;;
34242;SDS011;20504;43.214;27.920;2024-02-21T10:54:13;71.85;;;40.78;;
34242;SDS011;20504;43.214;27.920;2024-02-21T10:57:25;64.10;;;40.33;;
34242;SDS011;20504;43.214;27.920;2024-02-21T10:59:52;67.50;;;41.83;;
34242;SDS011;20504;43.214;27.920;2024-02-21T11:02:22;71.05;;;43.33;;
34242;SDS011;20504;43.214;27.920;2024-02-21T11:04:48;74.10;;;46.23;;
34242;SDS011;20504;43.214;27.920;2024-02-21T11:07:17;67.05;;;41.55;;
34242;SDS011;20504;43.214;27.920;2024-02-21T11:09:58;63.35;;;39.25;;
34242;SDS011;20504;43.214;27.920;2024-02-21T11:12:25;61.50;;;39.92;;
34242;SDS011;20504;43.214;27.920;2024-02-21T11:15:03;62.58;;;37.53;;
34242;SDS011;20504;43.214;27.920;2024-02-21T11:17:30;51.30;;;34.67;;
34242;SDS011;20504;43.214;27.920;2024-02-21T11:19:56;50.60;;;34.00;;
34242;SDS011;20504;43.214;27.920;2024-02-21T11:22:21;56.00;;;34.20;;
34242;SDS011;20504;43.214;27.920;2024-02-21T11:24:49;56.58;;;33.53;;
34242;SDS011;20504;43.214;27.920;2024-02-21T11:27:15;55.67;;;36.23;;
34242;SDS011;20504;43.214;27.920;2024-02-21T11:32:36;50.75;;;32.95;;
34242;SDS011;20504;43.214;27.920;2024-02-21T11:35:03;48.70;;;32.67;;
34242;SDS011;20504;43.214;27.920;2024-02-21T11:41:08;51.13;;;32.78;;
34242;SDS011;20504;43.214;27.920;2024-02-21T11:43:35;46.08;;;30.08;;
34242;SDS011;20504;43.214;27.920;2024-02-21T11:46:05;53.65;;;30.90;;
34242;SDS011;20504;43.214;27.920;2024-02-21T11:48:34;48.63;;;30.52;;
34242;SDS011;20504;43.214;27.920;2024-02-21T11:51:01;51.08;;;32.38;;
34242;SDS011;20504;43.214;27.920;2024-02-21T11:53:37;54.92;;;32.60;;
34242;SDS011;20504;43.214;27.920;2024-02-21T11:56:09;55.95;;;32.58;;
34242;SDS011;20504;43.214;27.920;2024-02-21T11:58:38;47.33;;;31.33;;
34242;SDS011;20504;43.214;27.920;2024-02-21T12:01:05;51.65;;;31.33;;
34242;SDS011;20504;43.214;27.920;2024-02-21T12:03:44;48.72;;;31.08;;
34242;SDS011;20504;43.214;27.920;2024-02-21T12:06:20;50.88;;;30.80;;
34242;SDS011;20504;43.214;27.920;2024-02-21T12:08:57;48.13;;;30.00;;
34242;SDS011;20504;43.214;27.920;2024-02-21T12:11:28;56.38;;;31.77;;
34242;SDS011;20504;43.214;27.920;2024-02-21T12:13:58;47.72;;;31.88;;
34242;SDS011;20504;43.214;27.920;2024-02-21T12:16:35;49.70;;;31.52;;
34242;SDS011;20504;43.214;27.920;2024-02-21T12:19:02;56.33;;;30.90;;
34242;SDS011;20504;43.214;27.920;2024-02-21T12:21:30;46.88;;;30.33;;
34242;SDS011;20504;43.214;27.920;2024-02-21T12:23:57;48.67;;;30.73;;
34242;SDS011;20504;43.214;27.920;2024-02-21T12:26:37;47.60;;;30.30;;
34242;SDS011;20504;43.214;27.920;2024-02-21T12:29:02;48.40;;;30.73;;
34242;SDS011;20504;43.214;27.920;2024-02-21T12:31:28;50.27;;;30.77;;
34242;SDS011;20504;43.214;27.920;2024-02-21T12:33:53;47.67;;;30.43;;
34242;SDS011;20504;43.214;27.920;2024-02-21T12:36:19;46.37;;;31.53;;
34242;SDS011;20504;43.214;27.920;2024-02-21T12:38:44;54.70;;;29.80;;
34242;SDS011;20504;43.214;27.920;2024-02-21T12:41:11;45.38;;;29.67;;
34242;SDS011;20504;43.214;27.920;2024-02-21T12:43:44;49.88;;;31.58;;
34242;SDS011;20504;43.214;27.920;2024-02-21T12:46:10;48.80;;;31.53;;
34242;SDS011;20504;43.214;27.920;2024-02-21T12:48:37;50.38;;;30.30;;
34242;SDS011;20504;43.214;27.920;2024-02-21T12:51:02;50.40;;;30.70;;
34242;SDS011;20504;43.214;27.920;2024-02-21T12:57:00;49.83;;;31.90;;
34242;SDS011;20504;43.214;27.920;2024-02-21T13:00:03;46.88;;;31.58;;
34242;SDS011;20504;43.214;27.920;2024-02-21T13:03:30;45.42;;;30.77;;
34242;SDS011;20504;43.214;27.920;2024-02-21T13:14:18;50.45;;;29.60;;
34242;SDS011;20504;43.214;27.920;2024-02-21T13:20:29;43.38;;;26.98;;
34242;SDS011;20504;43.214;27.920;2024-02-21T13:23:04;43.75;;;25.08;;
34242;SDS011;20504;43.214;27.920;2024-02-21T13:42:09;42.42;;;23.27;;
34242;SDS011;20504;43.214;27.920;2024-02-21T13:45:27;40.05;;;23.67;;
34242;SDS011;20504;43.214;27.920;2024-02-21T13:48:03;43.08;;;26.63;;
34242;SDS011;20504;43.214;27.920;2024-02-21T13:50:43;41.10;;;24.88;;
34242;SDS011;20504;43.214;27.920;2024-02-21T13:53:32;39.33;;;23.95;;
34242;SDS011;20504;43.214;27.920;2024-02-21T13:56:25;36.40;;;24.20;;
34242;SDS011;20504;43.214;27.920;2024-02-21T13:59:20;39.83;;;24.40;;
34242;SDS011;20504;43.214;27.920;2024-02-21T14:02:19;42.35;;;24.80;;
34242;SDS011;20504;43.214;27.920;2024-02-21T14:05:14;38.05;;;22.98;;
34242;SDS011;20504;43.214;27.920;2024-02-21T14:08:20;46.97;;;26.02;;
34242;SDS011;20504;43.214;27.920;2024-02-21T14:10:50;45.28;;;25.52;;
34242;SDS011;20504;43.214;27.920;2024-02-21T14:13:29;45.65;;;26.15;;
34242;SDS011;20504;43.214;27.920;2024-02-21T14:15:59;42.35;;;24.80;;
34242;SDS011;20504;43.214;27.920;2024-02-21T14:18:26;50.28;;;25.05;;
34242;SDS011;20504;43.214;27.920;2024-02-21T14:21:00;42.30;;;24.63;;
34242;SDS011;20504;43.214;27.920;2024-02-21T14:23:25;37.87;;;23.90;;
34242;SDS011;20504;43.214;27.920;2024-02-21T14:26:33;35.63;;;22.40;;
34242;SDS011;20504;43.214;27.920;2024-02-21T14:29:05;39.83;;;24.60;;
34242;SDS011;20504;43.214;27.920;2024-02-21T14:31:32;34.63;;;21.45;;
34242;SDS011;20504;43.214;27.920;2024-02-21T14:34:01;37.45;;;22.83;;
34242;SDS011;20504;43.214;27.920;2024-02-21T14:36:34;38.25;;;23.27;;
34242;SDS011;20504;43.214;27.920;2024-02-21T17:28:55;44.10;;;27.70;;
34242;SDS011;20504;43.214;27.920;2024-02-21T17:36:58;49.60;;;30.90;;
34242;SDS011;20504;43.214;27.920;2024-02-21T17:40:05;53.75;;;30.70;;
34242;SDS011;20504;43.214;27.920;2024-02-21T18:15:18;47.03;;;27.27;;
34242;SDS011;20504;43.214;27.920;2024-02-21T18:21:33;48.20;;;29.95;;
34242;SDS011;20504;43.214;27.920;2024-02-21T18:24:01;56.00;;;31.08;;
34242;SDS011;20504;43.214;27.920;2024-02-21T18:26:36;50.05;;;29.60;;
34242;SDS011;20504;43.214;27.920;2024-02-21T18:29:03;44.78;;;27.17;;
34242;SDS011;20504;43.214;27.920;2024-02-21T18:31:32;44.92;;;27.73;;
34242;SDS011;20504;43.214;27.920;2024-02-21T18:34:05;48.55;;;27.02;;
34242;SDS011;20504;43.214;27.920;2024-02-21T18:39:09;41.83;;;23.55;;
34242;SDS011;20504;43.214;27.920;2024-02-21T18:41:39;41.53;;;24.60;;
34242;SDS011;20504;43.214;27.920;2024-02-21T18:44:09;45.53;;;25.38;;
34242;SDS011;20504;43.214;27.920;2024-02-21T18:49:24;46.15;;;26.48;;
34242;SDS011;20504;43.214;27.920;2024-02-21T18:52:20;49.15;;;27.08;;
34242;SDS011;20504;43.214;27.920;2024-02-21T18:54:50;48.00;;;28.27;;
34242;SDS011;20504;43.214;27.920;2024-02-21T18:57:56;50.88;;;27.20;;
34242;SDS011;20504;43.214;27.920;2024-02-21T19:00:33;64.85;;;35.75;;
34242;SDS011;20504;43.214;27.920;2024-02-21T19:06:15;44.03;;;26.33;;
34242;SDS011;20504;43.214;27.920;2024-02-21T19:08:56;37.83;;;25.17;;
34242;SDS011;20504;43.214;27.920;2024-02-21T19:11:38;41.17;;;23.08;;
34242;SDS011;20504;43.214;27.920;2024-02-21T19:14:04;43.33;;;24.40;;
34242;SDS011;20504;43.214;27.920;2024-02-21T19:18:56;43.03;;;24.88;;
34242;SDS011;20504;43.214;27.920;2024-02-21T19:21:26;45.85;;;26.42;;
34242;SDS011;20504;43.214;27.920;2024-02-21T19:23:55;44.72;;;25.58;;
34242;SDS011;20504;43.214;27.920;2024-02-21T19:26:34;46.63;;;26.17;;
34242;SDS011;20504;43.214;27.920;2024-02-21T20:12:43;52.88;;;30.02;;
34242;SDS011;20504;43.214;27.920;2024-02-21T20:15:34;52.78;;;29.90;;
34242;SDS011;20504;43.214;27.920;2024-02-21T20:19:10;51.15;;;30.05;;
34242;SDS011;20504;43.214;27.920;2024-02-21T20:26:54;55.08;;;31.05;;
34242;SDS011;20504;43.214;27.920;2024-02-21T20:30:08;62.80;;;33.30;;
34242;SDS011;20504;43.214;27.920;2024-02-21T20:33:25;64.35;;;34.70;;
34242;SDS011;20504;43.214;27.920;2024-02-21T20:49:32;70.18;;;37.78;;
34242;SDS011;20504;43.214;27.920;2024-02-21T20:54:41;63.50;;;36.42;;
34242;SDS011;20504;43.214;27.920;2024-02-21T20:57:23;68.65;;;38.55;;
34242;SDS011;20504;43.214;27.920;2024-02-21T21:00:47;61.97;;;35.97;;
34242;SDS011;20504;43.214;27.920;2024-02-21T21:08:51;66.00;;;36.17;;
34242;SDS011;20504;43.214;27.920;2024-02-21T21:12:17;63.80;;;34.85;;
34242;SDS011;20504;43.214;27.920;2024-02-21T21:15:42;62.28;;;34.47;;
34242;SDS011;20504;43.214;27.920;2024-02-21T21:19:04;63.85;;;35.28;;
34242;SDS011;20504;43.214;27.920;2024-02-21T21:25:34;63.72;;;36.15;;
34242;SDS011;20504;43.214;27.920;2024-02-21T21:28:05;64.60;;;36.30;;